首页
METAR-TAF:

METAR-TAF

机场 :

哥伦比亚, 南卡罗来纳州, 美国

纬度: 33-58-15N, 经度: 080-59-40W, 海拔: 64米

当前天气观测

该预报发布于26分钟前的06:53 UTC
静风
温度 9°C
湿度 93%
气压 1020 hPa
能見度: 8.0公里
阴天层高于400英尺
轻雾

METAR: KCUB 170653Z AUTO 00000KT 5SM BR OVC004 09/08 A3011 RMK AO2 SLP196 T00890078

时间: 02:19 (07:19 UTC)

预报

该预报发布于1小时和42分钟前的05:37 UTC
预报有效从17日的 06点(UTC)到 18日的 06点(UTC)
风速节,风向
能見度: 6.4公里
阴天层高于200英尺
轻雾
短暂存在
从 17日的 06点(UTC)到 17日的 09点(UTC)
能見度: 1.6公里
轻雾
从 17日的 0900点(UTC)
风速节,风向
能見度: 4.8公里
阴天层高于200英尺
轻雾
短暂存在
从 17日的 09点(UTC)到 17日的 13点(UTC)
能見度: 1.6公里
阴天层高于200英尺
轻雾
从 17日的 1400点(UTC)
风速3节,风向多变
能見度: 8.0公里
阴天层高于400英尺
轻雾
从 17日的 1600点(UTC)
风速3节,风向多变
能見度: 10公里
阴天层高于1500英尺

TAF: KCUB 170537Z 1706/1806 00000KT 4SM BR OVC002 TEMPO 1706/1709 1SM BR FM170900 00000KT 3SM BR OVC002 TEMPO 1709/1713 1SM BR OVC002 FM171400 VRB03KT 5SM BR OVC004 FM171600 VRB03KT P6SM OVC015

超过4000个机场的气象观测和天气预报(METAR&TAF报告)。

可查询的气象台以黄色和红色小点在地图上表示。

将鼠标移到小点上方,可查看气象台名称。

然后点击查看天气观测和预报。

如需切换地图:点击带黑十字的绿色按钮放大地图;点击带横线的绿色按钮缩小地图;或者点击绿色箭头查看邻近地区的地图。


METAR-TAF: